createdAt,value
2019-02-24T00:00:41.277Z,0
2019-02-24T00:01:51.212Z,0
2019-02-24T00:03:01.147Z,0
2019-02-24T00:04:11.130Z,0
2019-02-24T00:05:21.068Z,0
2019-02-24T00:06:30.766Z,0
2019-02-24T00:07:40.462Z,0
2019-02-24T00:08:50.154Z,0
2019-02-24T00:09:59.841Z,0
2019-02-24T00:11:09.852Z,0
2019-02-24T00:12:19.817Z,0
2019-02-24T00:13:29.512Z,0
2019-02-24T00:14:39.438Z,0
2019-02-24T00:15:49.390Z,0
2019-02-24T00:16:59.343Z,0
2019-02-24T00:18:09.277Z,0
2019-02-24T00:19:19.230Z,0
2019-02-24T00:20:29.170Z,0
2019-02-24T00:21:39.125Z,0
2019-02-24T00:22:48.578Z,0
2019-02-24T00:23:58.518Z,0
2019-02-24T00:25:07.961Z,0
2019-02-24T00:26:17.913Z,0
2019-02-24T00:27:27.858Z,0
2019-02-24T00:28:37.798Z,0
2019-02-24T00:29:47.764Z,0
2019-02-24T00:30:57.449Z,0
2019-02-24T00:32:06.917Z,0
2019-02-24T00:33:16.372Z,0
2019-02-24T00:34:26.309Z,0
2019-02-24T00:35:36.251Z,0
2019-02-24T00:36:46.210Z,0
2019-02-24T00:37:56.153Z,0
2019-02-24T00:39:06.096Z,0
2019-02-24T00:40:16.039Z,0
2019-02-24T00:41:25.994Z,0
2019-02-24T00:42:35.693Z,0
2019-02-24T00:43:45.368Z,0
2019-02-24T00:44:55.058Z,0
2019-02-24T00:46:05.006Z,0
2019-02-24T00:47:14.970Z,0
2019-02-24T00:48:24.665Z,0
2019-02-24T00:49:34.596Z,0
2019-02-24T00:50:44.309Z,0
2019-02-24T00:51:53.997Z,0
2019-02-24T00:53:03.931Z,0
2019-02-24T00:54:13.880Z,0
2019-02-24T00:55:23.323Z,0
2019-02-24T00:56:33.254Z,0
2019-02-24T00:57:42.949Z,0
2019-02-24T00:58:52.891Z,0
2019-02-24T01:00:02.826Z,0
2019-02-24T01:01:12.766Z,0
2019-02-24T01:02:22.704Z,0
2019-02-24T01:03:32.640Z,0
2019-02-24T01:04:42.590Z,0
2019-02-24T01:05:52.529Z,0
2019-02-24T01:07:02.464Z,0
2019-02-24T01:08:12.395Z,0
2019-02-24T01:09:22.075Z,0
2019-02-24T01:10:31.507Z,0
2019-02-24T01:11:41.197Z,0
2019-02-24T01:12:51.127Z,0
2019-02-24T01:14:01.222Z,0
2019-02-24T01:15:11.156Z,0
2019-02-24T01:16:20.865Z,0
2019-02-24T01:17:30.790Z,0
2019-02-24T01:18:40.718Z,0
2019-02-24T01:19:50.660Z,0
2019-02-24T01:21:00.595Z,0
2019-02-24T01:22:10.542Z,0
2019-02-24T01:23:20.475Z,0
2019-02-24T01:24:29.905Z,0
2019-02-24T01:25:39.645Z,0
2019-02-24T01:26:49.075Z,0
2019-02-24T01:27:59.026Z,0
2019-02-24T01:29:08.974Z,0
2019-02-24T01:30:18.975Z,0
2019-02-24T01:31:28.453Z,0
2019-02-24T01:32:38.434Z,0
2019-02-24T01:33:48.377Z,0
2019-02-24T01:34:58.314Z,0
2019-02-24T01:36:08.257Z,0
2019-02-24T01:37:17.696Z,0
2019-02-24T01:38:27.630Z,0
2019-02-24T01:39:37.333Z,0
2019-02-24T01:40:47.043Z,0
2019-02-24T01:41:56.975Z,0
2019-02-24T01:43:06.659Z,0
2019-02-24T01:44:16.346Z,0
2019-02-24T01:45:26.290Z,0
2019-02-24T01:46:35.968Z,0
2019-02-24T01:47:45.657Z,0
2019-02-24T01:48:55.346Z,0
2019-02-24T01:50:05.283Z,0
2019-02-24T01:51:15.230Z,0
2019-02-24T01:52:24.909Z,0
2019-02-24T01:53:34.603Z,0
2019-02-24T01:54:44.284Z,0
2019-02-24T01:55:53.972Z,0
2019-02-24T01:57:03.660Z,0
2019-02-24T01:58:13.097Z,0
2019-02-24T01:59:23.026Z,0
2019-02-24T02:00:32.775Z,0
2019-02-24T02:01:42.733Z,0
2019-02-24T02:02:52.439Z,0
2019-02-24T02:04:02.376Z,0
2019-02-24T02:05:12.328Z,0
2019-02-24T02:06:22.043Z,0
2019-02-24T02:07:31.740Z,0
2019-02-24T02:08:41.681Z,0
2019-02-24T02:09:51.366Z,0
2019-02-24T02:11:01.055Z,0
2019-02-24T02:12:10.993Z,0
2019-02-24T02:13:20.947Z,0
2019-02-24T02:14:30.628Z,0
2019-02-24T02:15:40.565Z,0
2019-02-24T02:16:50.495Z,0
2019-02-24T02:18:00.433Z,0
2019-02-24T02:19:10.123Z,0
2019-02-24T02:20:19.811Z,0
2019-02-24T02:21:29.489Z,0
2019-02-24T02:22:39.426Z,0
2019-02-24T02:23:49.106Z,0
2019-02-24T02:24:59.033Z,0
2019-02-24T02:26:08.959Z,0
2019-02-24T02:27:18.643Z,0
2019-02-24T02:28:28.083Z,0
2019-02-24T02:29:38.025Z,0
2019-02-24T02:30:47.726Z,0
2019-02-24T02:31:57.405Z,0
2019-02-24T02:33:06.836Z,0
2019-02-24T02:34:16.779Z,0
2019-02-24T02:35:26.734Z,0
2019-02-24T02:36:36.420Z,0
2019-02-24T02:37:46.359Z,0
2019-02-24T02:38:56.300Z,0
2019-02-24T02:40:06.255Z,0
2019-02-24T02:41:15.949Z,0
2019-02-24T02:42:25.636Z,0
2019-02-24T02:43:35.327Z,0
2019-02-24T02:44:45.287Z,0
2019-02-24T02:45:54.735Z,0
2019-02-24T02:47:04.661Z,0
2019-02-24T02:48:14.601Z,0
2019-02-24T02:49:24.051Z,0
2019-02-24T02:50:33.750Z,0
2019-02-24T02:51:42.959Z,0
2019-02-24T02:52:52.979Z,0
2019-02-24T02:54:02.943Z,0
2019-02-24T02:55:12.633Z,0
2019-02-24T02:56:22.580Z,0
2019-02-24T02:57:32.031Z,0
2019-02-24T02:58:41.708Z,0
2019-02-24T03:00:01.422Z,0
2019-02-24T03:01:11.118Z,0
2019-02-24T03:02:31.167Z,0
2019-02-24T03:03:41.105Z,0
2019-02-24T03:04:50.550Z,0
2019-02-24T03:06:00.507Z,0
2019-02-24T03:07:10.193Z,0
2019-02-24T03:08:20.156Z,0
2019-02-24T03:09:29.837Z,0
2019-02-24T03:10:39.762Z,0
2019-02-24T03:11:49.455Z,0
2019-02-24T03:12:59.133Z,0
2019-02-24T03:14:08.845Z,0
2019-02-24T03:15:18.795Z,0
2019-02-24T03:16:30.065Z,0
2019-02-24T03:17:39.532Z,0
2019-02-24T03:18:49.238Z,0
2019-02-24T03:19:59.169Z,0
2019-02-24T03:21:09.125Z,0
2019-02-24T03:22:19.100Z,0
2019-02-24T03:23:28.808Z,0
2019-02-24T03:24:37.998Z,0
2019-02-24T03:25:47.688Z,0
2019-02-24T03:26:57.628Z,0
2019-02-24T03:28:07.331Z,0
2019-02-24T03:29:17.269Z,0
2019-02-24T03:30:27.333Z,0
2019-02-24T03:31:37.088Z,0
2019-02-24T03:32:47.068Z,0
2019-02-24T03:33:56.533Z,0
2019-02-24T03:35:06.487Z,0
2019-02-24T03:36:15.927Z,0
2019-02-24T03:37:25.863Z,0
2019-02-24T03:38:35.568Z,0
2019-02-24T03:39:45.517Z,0
2019-02-24T03:40:55.458Z,0
2019-02-24T03:42:05.397Z,0
2019-02-24T03:43:15.333Z,0
2019-02-24T03:44:25.110Z,0
2019-02-24T03:45:34.808Z,0
2019-02-24T03:46:44.480Z,0
2019-02-24T03:47:54.440Z,0
2019-02-24T03:49:04.412Z,0
2019-02-24T03:50:14.124Z,0
2019-02-24T03:51:24.068Z,0
2019-02-24T03:52:34.010Z,0
2019-02-24T03:53:43.703Z,0
2019-02-24T03:54:53.669Z,0
2019-02-24T03:56:04.886Z,0
2019-02-24T03:57:14.566Z,0
2019-02-24T03:58:24.484Z,0
2019-02-24T03:59:34.170Z,0
2019-02-24T04:00:44.113Z,0
2019-02-24T04:01:53.797Z,0
2019-02-24T04:03:03.486Z,0
2019-02-24T04:04:13.434Z,0
2019-02-24T04:05:23.130Z,0
2019-02-24T04:06:32.853Z,0
2019-02-24T04:07:42.793Z,0
2019-02-24T04:08:52.744Z,0
2019-02-24T04:10:02.568Z,0
2019-02-24T04:11:12.498Z,0
2019-02-24T04:12:22.440Z,0
2019-02-24T04:13:32.385Z,0
2019-02-24T04:14:42.328Z,0
2019-02-24T04:15:52.008Z,0
2019-02-24T04:17:01.704Z,0
2019-02-24T04:18:11.692Z,0
2019-02-24T04:19:21.388Z,0
2019-02-24T04:20:31.356Z,0
2019-02-24T04:21:41.047Z,0
2019-02-24T04:22:50.481Z,0
2019-02-24T04:24:00.427Z,0
2019-02-24T04:25:10.368Z,0
2019-02-24T04:26:20.057Z,0
2019-02-24T04:27:29.986Z,0
2019-02-24T04:28:39.656Z,0
2019-02-24T04:29:49.650Z,0
2019-02-24T04:30:59.583Z,0
2019-02-24T04:32:09.529Z,0
2019-02-24T04:33:19.508Z,0
2019-02-24T04:34:29.207Z,0
2019-02-24T04:35:38.650Z,0
2019-02-24T04:36:48.616Z,0
2019-02-24T04:37:58.562Z,0
2019-02-24T04:39:08.503Z,0
2019-02-24T04:40:17.942Z,0
2019-02-24T04:41:27.881Z,0
2019-02-24T04:42:37.565Z,0
2019-02-24T04:43:47.536Z,0
2019-02-24T04:44:57.227Z,0
2019-02-24T04:46:07.164Z,0
2019-02-24T04:47:16.866Z,0
2019-02-24T04:48:26.579Z,0
2019-02-24T04:49:36.324Z,0
2019-02-24T04:50:46.266Z,0
2019-02-24T04:51:55.953Z,0
2019-02-24T04:53:05.892Z,0
2019-02-24T04:54:15.840Z,0
2019-02-24T04:55:25.546Z,0
2019-02-24T04:56:35.254Z,0
2019-02-24T04:57:45.025Z,0
2019-02-24T04:58:55.000Z,0
2019-02-24T05:00:05.266Z,0
2019-02-24T05:01:14.981Z,0
2019-02-24T05:02:24.686Z,0
2019-02-24T05:03:34.629Z,0
2019-02-24T05:04:44.592Z,0
2019-02-24T05:05:54.514Z,0
2019-02-24T05:07:04.462Z,0
2019-02-24T05:08:14.414Z,0
2019-02-24T05:09:24.106Z,0
2019-02-24T05:10:34.058Z,0
2019-02-24T05:11:44.022Z,0
2019-02-24T05:12:53.949Z,0
2019-02-24T05:14:03.886Z,0
2019-02-24T05:15:13.595Z,0
2019-02-24T05:16:23.577Z,0
2019-02-24T05:17:33.274Z,0
2019-02-24T05:18:42.958Z,0
2019-02-24T05:19:52.903Z,0
2019-02-24T05:21:02.589Z,0
2019-02-24T05:22:12.537Z,0
2019-02-24T05:23:22.466Z,0
2019-02-24T05:24:32.389Z,0
2019-02-24T05:25:42.341Z,0
2019-02-24T05:26:51.520Z,0
2019-02-24T05:28:01.450Z,0
2019-02-24T05:29:11.408Z,0
2019-02-24T05:30:20.851Z,0
2019-02-24T05:31:30.793Z,0
2019-02-24T05:32:40.465Z,0
2019-02-24T05:33:50.404Z,0
2019-02-24T05:35:00.342Z,4
2019-02-24T05:36:10.034Z,4
2019-02-24T05:37:19.230Z,4
2019-02-24T05:38:28.926Z,4
2019-02-24T05:39:38.864Z,4
2019-02-24T05:40:48.547Z,8
2019-02-24T05:41:58.483Z,8
2019-02-24T05:43:08.432Z,8
2019-02-24T05:44:18.398Z,12
2019-02-24T05:45:28.102Z,16
2019-02-24T05:46:38.050Z,20
2019-02-24T05:47:47.500Z,24
2019-02-24T05:48:57.195Z,28
2019-02-24T05:50:07.146Z,36
2019-02-24T05:51:17.074Z,44
2019-02-24T05:52:27.034Z,52
2019-02-24T05:53:36.978Z,68
2019-02-24T05:54:47.008Z,84
2019-02-24T05:55:59.463Z,104
2019-02-24T05:57:09.168Z,124
2019-02-24T05:58:19.122Z,148
2019-02-24T05:59:29.079Z,172
2019-02-24T06:00:38.516Z,200
2019-02-24T06:01:48.480Z,224
2019-02-24T06:02:58.432Z,244
2019-02-24T06:04:08.381Z,272
2019-02-24T06:05:18.062Z,300
2019-02-24T06:06:27.778Z,332
2019-02-24T06:07:38.103Z,364
2019-02-24T06:08:48.049Z,396
2019-02-24T06:09:57.464Z,432
2019-02-24T06:11:07.150Z,472
2019-02-24T06:12:17.088Z,512
2019-02-24T06:13:26.780Z,548
2019-02-24T06:14:36.718Z,588
2019-02-24T06:15:46.644Z,632
2019-02-24T06:16:56.323Z,672
2019-02-24T06:18:06.006Z,708
2019-02-24T06:19:15.936Z,748
2019-02-24T06:20:25.633Z,784
2019-02-24T06:21:35.580Z,828
2019-02-24T06:22:45.367Z,864
2019-02-24T06:23:55.290Z,904
2019-02-24T06:25:05.066Z,944
2019-02-24T06:26:15.038Z,988
2019-02-24T06:27:24.725Z,1028
2019-02-24T06:28:34.668Z,1068
2019-02-24T06:29:44.628Z,1108
2019-02-24T06:30:54.065Z,1148
2019-02-24T06:32:03.768Z,1184
2019-02-24T06:33:13.478Z,1228
2019-02-24T06:34:23.435Z,1268
2019-02-24T06:35:32.888Z,1308
2019-02-24T06:36:43.640Z,1344
2019-02-24T06:37:53.336Z,1380
2019-02-24T06:39:02.765Z,1408
2019-02-24T06:40:12.194Z,1432
2019-02-24T06:41:22.139Z,1460
2019-02-24T06:42:31.821Z,1472
2019-02-24T06:43:41.545Z,1488
2019-02-24T06:44:51.216Z,1500
2019-02-24T06:46:01.149Z,1512
2019-02-24T06:47:10.830Z,1520
2019-02-24T06:48:20.532Z,1524
2019-02-24T06:49:30.233Z,1532
2019-02-24T06:50:42.835Z,1544
2019-02-24T06:51:52.523Z,1560
2019-02-24T06:53:02.468Z,1580
2019-02-24T06:54:11.924Z,1596
2019-02-24T06:55:21.612Z,1620
2019-02-24T06:56:31.305Z,1644
2019-02-24T06:57:41.254Z,1672
2019-02-24T06:58:51.204Z,1700
2019-02-24T07:00:00.665Z,1724
2019-02-24T07:01:10.141Z,1748
2019-02-24T07:02:19.853Z,1776
2019-02-24T07:03:29.525Z,1808
2019-02-24T07:04:39.225Z,1836
2019-02-24T07:05:49.160Z,1872
2019-02-24T07:06:58.590Z,1904
2019-02-24T07:08:08.520Z,1940
2019-02-24T07:09:19.123Z,1980
2019-02-24T07:10:29.169Z,2024
2019-02-24T07:11:38.864Z,2072
2019-02-24T07:12:48.588Z,2124
2019-02-24T07:13:58.057Z,2180
2019-02-24T07:15:08.005Z,2232
2019-02-24T07:16:17.694Z,2292
2019-02-24T07:17:27.633Z,2352
2019-02-24T07:18:37.587Z,2408
2019-02-24T07:19:47.514Z,2472
2019-02-24T07:20:57.581Z,2536
2019-02-24T07:22:07.531Z,2608
2019-02-24T07:23:17.465Z,2688
2019-02-24T07:24:27.403Z,2772
2019-02-24T07:25:37.369Z,2860
2019-02-24T07:26:47.321Z,2956
2019-02-24T07:27:58.393Z,3052
2019-02-24T07:29:08.081Z,3152
2019-02-24T07:30:26.002Z,3268
2019-02-24T07:31:35.956Z,3368
2019-02-24T07:32:46.091Z,3464
2019-02-24T07:33:56.036Z,3560
2019-02-24T07:35:05.793Z,3648
2019-02-24T07:36:15.481Z,3736
2019-02-24T07:37:25.432Z,3820
2019-02-24T07:38:35.367Z,3904
2019-02-24T07:39:45.319Z,3984
2019-02-24T07:40:55.262Z,4060
2019-02-24T07:42:05.205Z,4128
2019-02-24T07:43:14.655Z,4188
2019-02-24T07:44:24.597Z,4244
2019-02-24T07:45:34.279Z,4296
2019-02-24T07:46:43.981Z,4352
2019-02-24T07:47:53.911Z,4408
2019-02-24T07:49:03.593Z,4472
2019-02-24T07:50:13.545Z,4544
2019-02-24T07:51:23.491Z,4620
2019-02-24T07:52:33.167Z,4684
2019-02-24T07:53:43.115Z,4752
2019-02-24T07:54:52.795Z,4796
2019-02-24T07:56:02.485Z,4828
2019-02-24T07:57:12.424Z,4864
2019-02-24T07:58:22.141Z,4900
2019-02-24T07:59:32.099Z,4936
2019-02-24T08:00:41.529Z,4972
2019-02-24T08:01:51.457Z,5016
2019-02-24T08:03:01.138Z,5060
2019-02-24T08:04:11.075Z,5112
2019-02-24T08:05:20.513Z,5168
2019-02-24T08:06:30.451Z,5224
2019-02-24T08:07:40.412Z,5292
2019-02-24T08:08:50.098Z,5360
2019-02-24T08:09:59.783Z,5448
2019-02-24T08:11:09.733Z,5532
2019-02-24T08:12:19.415Z,5628
2019-02-24T08:13:29.104Z,5712
2019-02-24T08:14:39.057Z,5808
2019-02-24T08:15:48.751Z,5888
2019-02-24T08:16:58.472Z,5968
2019-02-24T08:18:08.403Z,6056
2019-02-24T08:19:18.333Z,6140
2019-02-24T08:20:28.269Z,6232
2019-02-24T08:21:38.214Z,6324
2019-02-24T08:22:48.141Z,6436
2019-02-24T08:23:58.080Z,6556
2019-02-24T08:25:07.778Z,6688
2019-02-24T08:26:17.478Z,6820
2019-02-24T08:27:27.423Z,6948
2019-02-24T08:28:37.131Z,7060
2019-02-24T08:29:47.073Z,7168
2019-02-24T08:30:57.021Z,7268
2019-02-24T08:32:06.731Z,7368
2019-02-24T08:33:16.991Z,7464
2019-02-24T08:34:26.934Z,7556
2019-02-24T08:35:36.880Z,7632
2019-02-24T08:36:46.581Z,7676
2019-02-24T08:37:56.255Z,7700
2019-02-24T08:39:06.206Z,7704
2019-02-24T08:40:15.659Z,7696
2019-02-24T08:41:25.662Z,7700
2019-02-24T08:42:35.665Z,7728
2019-02-24T08:43:45.379Z,7760
2019-02-24T08:44:55.344Z,7796
2019-02-24T08:46:05.292Z,7828
2019-02-24T08:47:15.244Z,7824
2019-02-24T08:48:26.509Z,7816
2019-02-24T08:49:36.198Z,7760
2019-02-24T08:50:46.148Z,8008
2019-02-24T08:51:56.082Z,8580
2019-02-24T08:53:05.767Z,9260
2019-02-24T08:54:15.456Z,9264
2019-02-24T08:55:25.389Z,8656
2019-02-24T08:56:35.327Z,7380
2019-02-24T08:57:45.018Z,9144
2019-02-24T08:58:54.463Z,8884
2019-02-24T09:00:04.407Z,8788
2019-02-24T09:01:14.359Z,8664
2019-02-24T09:02:24.307Z,8560
2019-02-24T09:03:34.253Z,8468
2019-02-24T09:04:43.939Z,8404
2019-02-24T09:05:53.929Z,8360
2019-02-24T09:07:03.680Z,8332
2019-02-24T09:08:13.643Z,8332
2019-02-24T09:09:23.339Z,8364
2019-02-24T09:10:33.289Z,8412
2019-02-24T09:11:43.225Z,8472
2019-02-24T09:12:52.931Z,8520
2019-02-24T09:14:02.875Z,8560
2019-02-24T09:15:12.082Z,8596
2019-02-24T09:16:22.041Z,8692
2019-02-24T09:17:31.995Z,8752
2019-02-24T09:18:41.686Z,8756
2019-02-24T09:19:51.402Z,8900
2019-02-24T09:21:01.367Z,8976
2019-02-24T09:22:12.480Z,9040
2019-02-24T09:23:22.546Z,9056
2019-02-24T09:24:32.534Z,9192
2019-02-24T09:25:42.485Z,9272
2019-02-24T09:26:52.189Z,9388
2019-02-24T09:28:01.625Z,9464
2019-02-24T09:29:11.581Z,9536
2019-02-24T09:30:21.522Z,9624
2019-02-24T09:31:30.959Z,9716
2019-02-24T09:32:40.667Z,9972
2019-02-24T09:33:50.618Z,10364
2019-02-24T09:35:00.356Z,10396
2019-02-24T09:36:10.339Z,10604
2019-02-24T09:37:20.300Z,10540
2019-02-24T09:38:30.261Z,10620
2019-02-24T09:39:40.200Z,10648
2019-02-24T09:40:50.138Z,10700
2019-02-24T09:41:59.848Z,10964
2019-02-24T09:43:09.817Z,11412
2019-02-24T09:44:19.788Z,11708
2019-02-24T09:45:29.947Z,11988
2019-02-24T09:46:39.644Z,12452
2019-02-24T09:47:53.668Z,12400
2019-02-24T09:49:03.634Z,12992
2019-02-24T09:50:13.330Z,13328
2019-02-24T09:51:23.304Z,13688
2019-02-24T09:52:33.245Z,14320
2019-02-24T09:53:43.197Z,15280
2019-02-24T09:54:53.174Z,14724
2019-02-24T09:56:02.898Z,15064
2019-02-24T09:57:12.866Z,15616
2019-02-24T09:58:22.834Z,16128
2019-02-24T09:59:32.559Z,16608
2019-02-24T10:00:42.498Z,16576
2019-02-24T10:01:52.444Z,17920
2019-02-24T10:03:02.495Z,18528
2019-02-24T10:04:12.465Z,17856
2019-02-24T10:05:22.421Z,18336
2019-02-24T10:06:32.397Z,19040
2019-02-24T10:07:42.335Z,19456
2019-02-24T10:08:52.312Z,19456
2019-02-24T10:10:02.264Z,19936
2019-02-24T10:11:13.240Z,19968
2019-02-24T10:12:23.086Z,21824
2019-02-24T10:13:32.799Z,21600
2019-02-24T10:14:42.745Z,21376
2019-02-24T10:15:52.703Z,21472
2019-02-24T10:17:02.683Z,21984
2019-02-24T10:18:12.384Z,23392
2019-02-24T10:19:22.094Z,24032
2019-02-24T10:20:31.547Z,24640
2019-02-24T10:21:41.561Z,24704
2019-02-24T10:22:51.303Z,24032
2019-02-24T10:24:01.028Z,24672
2019-02-24T10:25:13.176Z,27008
2019-02-24T10:26:23.129Z,27648
2019-02-24T10:27:33.078Z,27680
2019-02-24T10:28:42.798Z,27360
2019-02-24T10:29:52.805Z,27776
2019-02-24T10:31:04.032Z,29440
2019-02-24T10:32:14.006Z,30368
2019-02-24T10:33:23.786Z,29280
2019-02-24T10:34:33.754Z,30816
2019-02-24T10:35:43.722Z,32672
2019-02-24T10:36:53.681Z,32256
2019-02-24T10:38:03.398Z,32064
2019-02-24T10:39:13.364Z,32928
2019-02-24T10:40:22.819Z,33408
2019-02-24T10:41:32.520Z,34752
2019-02-24T10:42:42.493Z,35040
2019-02-24T10:43:52.460Z,34368
2019-02-24T10:45:02.171Z,35200
2019-02-24T10:46:13.495Z,36832
2019-02-24T10:47:23.464Z,39072
2019-02-24T10:48:33.173Z,40960
2019-02-24T10:49:43.105Z,41248
2019-02-24T10:50:53.063Z,41056
2019-02-24T10:52:02.781Z,42016
2019-02-24T10:53:12.744Z,42720
2019-02-24T10:54:22.446Z,42592
2019-02-24T10:55:32.145Z,42144
2019-02-24T10:56:42.124Z,42144
2019-02-24T10:57:51.586Z,44320
2019-02-24T10:59:01.299Z,45344
2019-02-24T11:00:10.513Z,46624
2019-02-24T11:01:28.985Z,47360
2019-02-24T11:02:39.239Z,46912
2019-02-24T11:03:49.208Z,47232
2019-02-24T11:04:59.147Z,48096
2019-02-24T11:06:09.128Z,49632
2019-02-24T11:07:19.094Z,51072
2019-02-24T11:08:28.820Z,51584
2019-02-24T11:09:38.761Z,49088
2019-02-24T11:10:48.728Z,46304
2019-02-24T11:11:58.447Z,46240
2019-02-24T11:13:08.407Z,45408
2019-02-24T11:14:18.361Z,48480
2019-02-24T11:15:28.314Z,51424
2019-02-24T11:16:39.444Z,54912
2019-02-24T11:17:49.460Z,57536
2019-02-24T11:18:59.188Z,59040
2019-02-24T11:20:08.884Z,59968
2019-02-24T11:21:18.860Z,60288
2019-02-24T11:22:28.814Z,60928
2019-02-24T11:23:38.544Z,59200
2019-02-24T11:24:48.499Z,58432
2019-02-24T11:25:58.462Z,60768
2019-02-24T11:27:07.913Z,58912
2019-02-24T11:28:17.616Z,61472
2019-02-24T11:29:27.563Z,64160
2019-02-24T11:30:37.565Z,60608
2019-02-24T11:31:47.272Z,61568
2019-02-24T11:32:57.028Z,63584
2019-02-24T11:34:06.992Z,64480
2019-02-24T11:35:16.981Z,62560
2019-02-24T11:36:26.931Z,64288
2019-02-24T11:37:37.010Z,67296
2019-02-24T11:38:46.715Z,64928
2019-02-24T11:39:56.429Z,66592
2019-02-24T11:41:06.613Z,67072
2019-02-24T11:42:16.321Z,63936
2019-02-24T11:43:26.030Z,68256
2019-02-24T11:44:35.488Z,71424
2019-02-24T11:45:45.190Z,71424
2019-02-24T11:46:55.194Z,70400
2019-02-24T11:48:04.907Z,66432
2019-02-24T11:49:14.612Z,65248
2019-02-24T11:50:24.321Z,67744
2019-02-24T11:51:34.032Z,70208
2019-02-24T11:52:43.980Z,69888
2019-02-24T11:53:53.939Z,68096
2019-02-24T11:55:03.634Z,71200
2019-02-24T11:56:13.614Z,74304
2019-02-24T11:57:23.622Z,70752
2019-02-24T11:58:33.590Z,69760
2019-02-24T11:59:43.563Z,70848
2019-02-24T12:00:53.530Z,72672
2019-02-24T12:02:03.496Z,73568
2019-02-24T12:03:13.201Z,73184
2019-02-24T12:04:23.166Z,72032
2019-02-24T12:05:32.856Z,75008
2019-02-24T12:06:42.567Z,77312
2019-02-24T12:07:52.277Z,76960
2019-02-24T12:09:10.030Z,78368
2019-02-24T12:10:19.738Z,78336
2019-02-24T12:11:29.702Z,79264
2019-02-24T12:12:39.413Z,76448
2019-02-24T12:13:49.392Z,81024
2019-02-24T12:14:59.357Z,80704
2019-02-24T12:16:09.347Z,76992
2019-02-24T12:17:19.311Z,82528
2019-02-24T12:18:29.248Z,82880
2019-02-24T12:19:38.719Z,75424
2019-02-24T12:20:48.682Z,79872
2019-02-24T12:21:58.646Z,82400
2019-02-24T12:23:08.601Z,82848
2019-02-24T12:24:18.315Z,81248
2019-02-24T12:25:28.287Z,78688
2019-02-24T12:26:39.986Z,75456
2019-02-24T12:27:49.441Z,76064
2019-02-24T12:28:59.404Z,67232
2019-02-24T12:30:09.108Z,52832
2019-02-24T12:31:18.575Z,73440
2019-02-24T12:32:28.542Z,78976
2019-02-24T12:33:38.270Z,76544
2019-02-24T12:34:48.244Z,81120
2019-02-24T12:35:58.207Z,83936
2019-02-24T12:37:07.936Z,83712
2019-02-24T12:38:17.661Z,85888
2019-02-24T12:39:27.644Z,80224
2019-02-24T12:40:37.605Z,75712
2019-02-24T12:41:47.073Z,77024
2019-02-24T12:42:57.098Z,81952
2019-02-24T12:44:07.073Z,73120
2019-02-24T12:45:17.046Z,80320
2019-02-24T12:46:27.004Z,80352
2019-02-24T12:47:37.004Z,79136
2019-02-24T12:48:46.750Z,79872
2019-02-24T12:50:05.334Z,87552
2019-02-24T12:51:15.308Z,84992
2019-02-24T12:52:25.571Z,84832
2019-02-24T12:53:35.284Z,89472
2019-02-24T12:54:44.990Z,87488
2019-02-24T12:55:54.474Z,91232
2019-02-24T12:57:04.208Z,97024
2019-02-24T12:58:14.736Z,93728
2019-02-24T12:59:24.711Z,89120
2019-02-24T13:00:34.677Z,89024
2019-02-24T13:01:46.642Z,94880
2019-02-24T13:02:56.372Z,89792
2019-02-24T13:04:06.354Z,92320
2019-02-24T13:05:16.102Z,92608
2019-02-24T13:06:26.076Z,81920
2019-02-24T13:07:36.030Z,89984
2019-02-24T13:08:45.749Z,83936
2019-02-24T13:09:55.730Z,93408
2019-02-24T13:11:05.207Z,82240
2019-02-24T13:12:15.178Z,93152
2019-02-24T13:13:24.894Z,85536
2019-02-24T13:14:34.866Z,89760
2019-02-24T13:15:44.839Z,90592
2019-02-24T13:16:54.825Z,92928
2019-02-24T13:18:04.780Z,97280
2019-02-24T13:19:14.763Z,95776
2019-02-24T13:20:24.464Z,100224
2019-02-24T13:21:34.424Z,97632
2019-02-24T13:22:44.388Z,97760
2019-02-24T13:23:54.360Z,90528
2019-02-24T13:25:04.328Z,94432
2019-02-24T13:26:14.314Z,88192
2019-02-24T13:27:24.281Z,89952
2019-02-24T13:28:34.242Z,93376
2019-02-24T13:29:44.218Z,94784
2019-02-24T13:30:54.187Z,100512
2019-02-24T13:32:04.165Z,95296
2019-02-24T13:33:22.233Z,100704
2019-02-24T13:34:33.281Z,95232
2019-02-24T13:35:45.396Z,104000
2019-02-24T13:36:55.131Z,97056
2019-02-24T13:38:05.088Z,101120
2019-02-24T13:39:15.045Z,105216
2019-02-24T13:40:24.758Z,99232
2019-02-24T13:41:34.743Z,111712
2019-02-24T13:42:44.727Z,100576
2019-02-24T13:43:53.948Z,99552
2019-02-24T13:45:03.901Z,91904
2019-02-24T13:46:13.594Z,96000
2019-02-24T13:47:23.542Z,103232
2019-02-24T13:48:33.263Z,101888
2019-02-24T13:49:43.133Z,106016
2019-02-24T13:50:53.114Z,105312
2019-02-24T13:52:02.579Z,105216
2019-02-24T13:53:12.576Z,101568
2019-02-24T13:54:22.034Z,98816
2019-02-24T13:55:31.968Z,95200
2019-02-24T13:56:41.926Z,100832
2019-02-24T13:57:53.052Z,92960
2019-02-24T13:59:02.541Z,90304
2019-02-24T14:00:12.288Z,86784
2019-02-24T14:01:22.012Z,77952
2019-02-24T14:02:31.987Z,83008
2019-02-24T14:03:41.953Z,73856
2019-02-24T14:04:51.913Z,78752
2019-02-24T14:06:01.611Z,91520
2019-02-24T14:07:11.598Z,87040
2019-02-24T14:08:21.570Z,99296
2019-02-24T14:09:31.526Z,86688
2019-02-24T14:10:40.985Z,95808
2019-02-24T14:11:50.955Z,100192
2019-02-24T14:13:01.434Z,89760
2019-02-24T14:14:12.389Z,89696
2019-02-24T14:15:22.362Z,84896
2019-02-24T14:16:32.081Z,80672
2019-02-24T14:17:41.792Z,75552
2019-02-24T14:18:52.443Z,81536
2019-02-24T14:20:02.430Z,85056
2019-02-24T14:21:12.406Z,79712
2019-02-24T14:22:22.123Z,76768
2019-02-24T14:23:32.095Z,78816
2019-02-24T14:24:41.557Z,79200
2019-02-24T14:25:51.268Z,77152
2019-02-24T14:27:00.980Z,77664
2019-02-24T14:28:10.458Z,68864
2019-02-24T14:29:19.962Z,78560
2019-02-24T14:30:29.691Z,62784
2019-02-24T14:31:39.663Z,65248
2019-02-24T14:32:51.485Z,69664
2019-02-24T14:34:01.441Z,49984
2019-02-24T14:35:11.150Z,61376
2019-02-24T14:36:20.855Z,54368
2019-02-24T14:37:30.798Z,66016
2019-02-24T14:38:40.758Z,71744
2019-02-24T14:39:50.741Z,68640
2019-02-24T14:41:00.477Z,72832
2019-02-24T14:42:11.054Z,77728
2019-02-24T14:43:20.767Z,86304
2019-02-24T14:44:30.595Z,84032
2019-02-24T14:45:49.276Z,89920
2019-02-24T14:46:59.672Z,76640
2019-02-24T14:48:09.674Z,78944
2019-02-24T14:49:19.397Z,72768
2019-02-24T14:50:29.369Z,83072
2019-02-24T14:51:39.339Z,83328
2019-02-24T14:52:49.310Z,83392
2019-02-24T14:53:59.311Z,77632
2019-02-24T14:55:09.271Z,76288
2019-02-24T14:56:18.975Z,90112
2019-02-24T14:57:28.688Z,86048
2019-02-24T14:58:38.160Z,88640
2019-02-24T14:59:48.125Z,83648
2019-02-24T15:00:58.075Z,77248
2019-02-24T15:02:08.489Z,78240
2019-02-24T15:03:18.462Z,74912
2019-02-24T15:04:27.926Z,80000
2019-02-24T15:05:37.885Z,83424
2019-02-24T15:06:47.891Z,78880
2019-02-24T15:07:57.867Z,75872
2019-02-24T15:09:07.837Z,79104
2019-02-24T15:10:17.332Z,77024
2019-02-24T15:11:27.301Z,67360
2019-02-24T15:12:37.047Z,73760
2019-02-24T15:13:46.512Z,71360
2019-02-24T15:14:56.480Z,75264
2019-02-24T15:16:06.201Z,80000
2019-02-24T15:17:16.167Z,68704
2019-02-24T15:18:25.619Z,60192
2019-02-24T15:19:34.873Z,59424
2019-02-24T15:20:44.861Z,72544
2019-02-24T15:21:54.851Z,72608
2019-02-24T15:23:06.546Z,59936
2019-02-24T15:24:16.767Z,55968
2019-02-24T15:25:26.488Z,66016
2019-02-24T15:26:36.643Z,53760
2019-02-24T15:27:46.361Z,55840
2019-02-24T15:28:56.320Z,62624
2019-02-24T15:30:06.305Z,65728
2019-02-24T15:31:16.297Z,51968
2019-02-24T15:32:26.259Z,48768
2019-02-24T15:33:35.728Z,65664
2019-02-24T15:34:45.461Z,65952
2019-02-24T15:35:54.930Z,55968
2019-02-24T15:37:04.678Z,54592
2019-02-24T15:38:14.408Z,55488
2019-02-24T15:39:23.851Z,49440
2019-02-24T15:40:33.806Z,47072
2019-02-24T15:41:43.763Z,27168
2019-02-24T15:42:53.721Z,11656
2019-02-24T15:44:03.693Z,29728
2019-02-24T15:45:13.666Z,44704
2019-02-24T15:46:23.398Z,37152
2019-02-24T15:47:34.581Z,16160
2019-02-24T15:48:44.563Z,6504
2019-02-24T15:49:54.276Z,4916
2019-02-24T15:51:04.273Z,4696
2019-02-24T15:52:17.249Z,4564
2019-02-24T15:53:27.239Z,4456
2019-02-24T15:54:36.945Z,4348